Terminal Aerodrome Forecast
Issued by NWS

Current Version | Previous Version | Text Only | Print | Product List | Glossary Off
Versions: 1 2 3 4 5 6 7 8 9 10 11 12 13 14 15 16 17 18 19

000
FTUS41 KPBZ 211028 AAA
TAFMGW
TAF AMD
KMGW 211028Z 2110/2206 18003KT 1 1/2SM BR VCSH BKN025
     FM211300 23012KT P6SM OVC015
     FM211700 26014KT P6SM BKN050=

USA.gov is the U.S. government's official web portal to all federal, state and local government web resources and services.